sensor_id;sensor_type;location;lat;lon;timestamp;P1;durP1;ratioP1;P2;durP2;ratioP2
54627;SDS011;40525;55.926;21.066;2024-02-15T00:01:05;15.10;;;7.00;;
54627;SDS011;40525;55.926;21.066;2024-02-15T00:03:32;15.60;;;7.50;;
54627;SDS011;40525;55.926;21.066;2024-02-15T00:05:59;13.20;;;7.30;;
54627;SDS011;40525;55.926;21.066;2024-02-15T00:08:28;16.20;;;7.60;;
54627;SDS011;40525;55.926;21.066;2024-02-15T00:10:56;13.30;;;7.40;;
54627;SDS011;40525;55.926;21.066;2024-02-15T00:13:23;14.80;;;7.70;;
54627;SDS011;40525;55.926;21.066;2024-02-15T00:15:50;15.00;;;6.80;;
54627;SDS011;40525;55.926;21.066;2024-02-15T00:18:17;13.80;;;7.40;;
54627;SDS011;40525;55.926;21.066;2024-02-15T00:20:45;14.90;;;8.00;;
54627;SDS011;40525;55.926;21.066;2024-02-15T00:23:12;16.50;;;7.90;;
54627;SDS011;40525;55.926;21.066;2024-02-15T00:25:39;15.50;;;6.90;;
54627;SDS011;40525;55.926;21.066;2024-02-15T00:28:11;14.10;;;7.00;;
54627;SDS011;40525;55.926;21.066;2024-02-15T00:30:39;14.50;;;7.20;;
54627;SDS011;40525;55.926;21.066;2024-02-15T00:33:07;13.30;;;7.70;;
54627;SDS011;40525;55.926;21.066;2024-02-15T00:35:35;14.30;;;8.10;;
54627;SDS011;40525;55.926;21.066;2024-02-15T00:38:02;15.30;;;7.70;;
54627;SDS011;40525;55.926;21.066;2024-02-15T00:40:30;14.20;;;7.20;;
54627;SDS011;40525;55.926;21.066;2024-02-15T00:42:57;13.40;;;6.90;;
54627;SDS011;40525;55.926;21.066;2024-02-15T00:45:24;15.60;;;7.70;;
54627;SDS011;40525;55.926;21.066;2024-02-15T00:47:51;15.20;;;7.50;;
54627;SDS011;40525;55.926;21.066;2024-02-15T00:50:19;13.10;;;7.20;;
54627;SDS011;40525;55.926;21.066;2024-02-15T00:52:46;15.30;;;7.20;;
54627;SDS011;40525;55.926;21.066;2024-02-15T00:55:13;12.60;;;7.60;;
54627;SDS011;40525;55.926;21.066;2024-02-15T00:57:40;19.70;;;7.70;;
54627;SDS011;40525;55.926;21.066;2024-02-15T01:00:07;15.60;;;7.70;;
54627;SDS011;40525;55.926;21.066;2024-02-15T01:02:36;14.20;;;7.60;;
54627;SDS011;40525;55.926;21.066;2024-02-15T01:05:03;15.60;;;7.60;;
54627;SDS011;40525;55.926;21.066;2024-02-15T01:07:30;14.00;;;8.00;;
54627;SDS011;40525;55.926;21.066;2024-02-15T01:09:57;13.30;;;7.40;;
54627;SDS011;40525;55.926;21.066;2024-02-15T01:12:24;14.60;;;7.40;;
54627;SDS011;40525;55.926;21.066;2024-02-15T01:14:51;14.10;;;8.10;;
54627;SDS011;40525;55.926;21.066;2024-02-15T01:17:19;12.50;;;7.20;;
54627;SDS011;40525;55.926;21.066;2024-02-15T01:19:45;17.10;;;7.70;;
54627;SDS011;40525;55.926;21.066;2024-02-15T01:22:12;14.30;;;6.80;;
54627;SDS011;40525;55.926;21.066;2024-02-15T01:24:39;15.00;;;7.30;;
54627;SDS011;40525;55.926;21.066;2024-02-15T01:27:07;13.20;;;7.00;;
54627;SDS011;40525;55.926;21.066;2024-02-15T01:29:35;12.10;;;6.90;;
54627;SDS011;40525;55.926;21.066;2024-02-15T01:32:02;13.20;;;7.40;;
54627;SDS011;40525;55.926;21.066;2024-02-15T01:34:30;16.10;;;7.60;;
54627;SDS011;40525;55.926;21.066;2024-02-15T01:36:57;16.90;;;7.50;;
54627;SDS011;40525;55.926;21.066;2024-02-15T01:39:24;16.30;;;7.90;;
54627;SDS011;40525;55.926;21.066;2024-02-15T01:41:51;15.00;;;7.70;;
54627;SDS011;40525;55.926;21.066;2024-02-15T01:44:18;14.70;;;7.10;;
54627;SDS011;40525;55.926;21.066;2024-02-15T01:46:47;13.90;;;7.10;;
54627;SDS011;40525;55.926;21.066;2024-02-15T01:49:15;16.40;;;7.20;;
54627;SDS011;40525;55.926;21.066;2024-02-15T01:51:43;14.00;;;7.60;;
54627;SDS011;40525;55.926;21.066;2024-02-15T01:54:11;17.80;;;7.20;;
54627;SDS011;40525;55.926;21.066;2024-02-15T01:56:40;14.60;;;7.30;;
54627;SDS011;40525;55.926;21.066;2024-02-15T01:59:07;14.00;;;7.60;;
54627;SDS011;40525;55.926;21.066;2024-02-15T02:01:34;16.50;;;7.40;;
54627;SDS011;40525;55.926;21.066;2024-02-15T02:04:01;14.10;;;7.10;;
54627;SDS011;40525;55.926;21.066;2024-02-15T02:06:30;15.70;;;7.40;;
54627;SDS011;40525;55.926;21.066;2024-02-15T02:08:57;17.40;;;7.20;;
54627;SDS011;40525;55.926;21.066;2024-02-15T02:11:24;11.70;;;6.80;;
54627;SDS011;40525;55.926;21.066;2024-02-15T02:13:52;14.10;;;7.60;;
54627;SDS011;40525;55.926;21.066;2024-02-15T02:18:56;12.00;;;7.00;;
54627;SDS011;40525;55.926;21.066;2024-02-15T02:21:27;12.90;;;6.60;;
54627;SDS011;40525;55.926;21.066;2024-02-15T02:23:55;13.40;;;6.60;;
54627;SDS011;40525;55.926;21.066;2024-02-15T02:26:24;13.30;;;7.10;;
54627;SDS011;40525;55.926;21.066;2024-02-15T02:28:52;12.50;;;7.30;;
54627;SDS011;40525;55.926;21.066;2024-02-15T02:31:20;11.40;;;7.10;;
54627;SDS011;40525;55.926;21.066;2024-02-15T02:33:52;15.10;;;8.10;;
54627;SDS011;40525;55.926;21.066;2024-02-15T02:36:21;13.20;;;7.00;;
54627;SDS011;40525;55.926;21.066;2024-02-15T02:38:48;13.80;;;7.00;;
54627;SDS011;40525;55.926;21.066;2024-02-15T02:41:17;12.50;;;6.10;;
54627;SDS011;40525;55.926;21.066;2024-02-15T02:43:46;15.20;;;7.30;;
54627;SDS011;40525;55.926;21.066;2024-02-15T02:46:13;12.00;;;6.60;;
54627;SDS011;40525;55.926;21.066;2024-02-15T02:48:40;12.90;;;6.40;;
54627;SDS011;40525;55.926;21.066;2024-02-15T02:51:07;12.00;;;7.10;;
54627;SDS011;40525;55.926;21.066;2024-02-15T02:53:34;13.80;;;7.00;;
54627;SDS011;40525;55.926;21.066;2024-02-15T02:56:02;12.90;;;6.60;;
54627;SDS011;40525;55.926;21.066;2024-02-15T02:58:30;10.90;;;6.10;;
54627;SDS011;40525;55.926;21.066;2024-02-15T03:00:57;15.00;;;6.30;;
54627;SDS011;40525;55.926;21.066;2024-02-15T03:03:27;13.50;;;6.10;;
54627;SDS011;40525;55.926;21.066;2024-02-15T03:05:54;10.50;;;6.30;;
54627;SDS011;40525;55.926;21.066;2024-02-15T03:08:21;11.70;;;6.70;;
54627;SDS011;40525;55.926;21.066;2024-02-15T03:10:49;13.00;;;7.20;;
54627;SDS011;40525;55.926;21.066;2024-02-15T03:13:16;13.20;;;6.70;;
54627;SDS011;40525;55.926;21.066;2024-02-15T03:15:45;12.30;;;6.40;;
54627;SDS011;40525;55.926;21.066;2024-02-15T03:18:15;12.00;;;6.80;;
54627;SDS011;40525;55.926;21.066;2024-02-15T03:20:43;13.00;;;6.80;;
54627;SDS011;40525;55.926;21.066;2024-02-15T03:23:10;12.40;;;6.40;;
54627;SDS011;40525;55.926;21.066;2024-02-15T03:25:38;12.70;;;6.80;;
54627;SDS011;40525;55.926;21.066;2024-02-15T03:28:06;15.20;;;6.40;;
54627;SDS011;40525;55.926;21.066;2024-02-15T03:30:32;11.50;;;5.70;;
54627;SDS011;40525;55.926;21.066;2024-02-15T03:33:01;10.30;;;6.10;;
54627;SDS011;40525;55.926;21.066;2024-02-15T03:35:33;8.90;;;5.20;;
54627;SDS011;40525;55.926;21.066;2024-02-15T03:38:00;11.80;;;6.00;;
54627;SDS011;40525;55.926;21.066;2024-02-15T03:40:27;11.60;;;5.50;;
54627;SDS011;40525;55.926;21.066;2024-02-15T03:42:55;12.50;;;6.10;;
54627;SDS011;40525;55.926;21.066;2024-02-15T03:45:23;10.70;;;5.80;;
54627;SDS011;40525;55.926;21.066;2024-02-15T03:47:53;11.60;;;6.30;;
54627;SDS011;40525;55.926;21.066;2024-02-15T03:50:21;11.10;;;5.50;;
54627;SDS011;40525;55.926;21.066;2024-02-15T03:52:49;10.50;;;5.90;;
54627;SDS011;40525;55.926;21.066;2024-02-15T03:55:17;11.50;;;5.60;;
54627;SDS011;40525;55.926;21.066;2024-02-15T03:57:45;11.60;;;5.80;;
54627;SDS011;40525;55.926;21.066;2024-02-15T04:00:13;10.60;;;5.70;;
54627;SDS011;40525;55.926;21.066;2024-02-15T04:02:48;10.70;;;5.50;;
54627;SDS011;40525;55.926;21.066;2024-02-15T04:05:16;10.20;;;5.40;;
54627;SDS011;40525;55.926;21.066;2024-02-15T04:07:46;10.60;;;6.30;;
54627;SDS011;40525;55.926;21.066;2024-02-15T04:10:13;10.80;;;5.50;;
54627;SDS011;40525;55.926;21.066;2024-02-15T04:12:40;11.60;;;6.20;;
54627;SDS011;40525;55.926;21.066;2024-02-15T04:15:09;9.80;;;5.30;;
54627;SDS011;40525;55.926;21.066;2024-02-15T04:17:44;9.40;;;5.00;;
54627;SDS011;40525;55.926;21.066;2024-02-15T04:20:12;11.00;;;5.80;;
54627;SDS011;40525;55.926;21.066;2024-02-15T04:22:42;10.10;;;5.10;;
54627;SDS011;40525;55.926;21.066;2024-02-15T04:25:10;11.80;;;6.00;;
54627;SDS011;40525;55.926;21.066;2024-02-15T04:27:44;10.10;;;5.60;;
54627;SDS011;40525;55.926;21.066;2024-02-15T04:30:16;12.10;;;5.80;;
54627;SDS011;40525;55.926;21.066;2024-02-15T04:32:44;16.60;;;6.30;;
54627;SDS011;40525;55.926;21.066;2024-02-15T04:35:11;13.60;;;6.10;;
54627;SDS011;40525;55.926;21.066;2024-02-15T04:37:40;12.10;;;5.50;;
54627;SDS011;40525;55.926;21.066;2024-02-15T04:40:08;11.30;;;4.90;;
54627;SDS011;40525;55.926;21.066;2024-02-15T04:42:38;11.30;;;5.00;;
54627;SDS011;40525;55.926;21.066;2024-02-15T04:45:08;10.10;;;6.40;;
54627;SDS011;40525;55.926;21.066;2024-02-15T04:47:38;13.70;;;5.50;;
54627;SDS011;40525;55.926;21.066;2024-02-15T04:50:07;10.90;;;5.30;;
54627;SDS011;40525;55.926;21.066;2024-02-15T04:52:36;10.70;;;6.00;;
54627;SDS011;40525;55.926;21.066;2024-02-15T04:55:04;13.30;;;6.20;;
54627;SDS011;40525;55.926;21.066;2024-02-15T04:57:34;9.90;;;5.60;;
54627;SDS011;40525;55.926;21.066;2024-02-15T05:00:04;11.50;;;6.40;;
54627;SDS011;40525;55.926;21.066;2024-02-15T05:02:37;13.10;;;6.40;;
54627;SDS011;40525;55.926;21.066;2024-02-15T05:05:08;12.60;;;5.90;;
54627;SDS011;40525;55.926;21.066;2024-02-15T05:07:36;10.90;;;5.90;;
54627;SDS011;40525;55.926;21.066;2024-02-15T05:10:07;10.90;;;6.20;;
54627;SDS011;40525;55.926;21.066;2024-02-15T05:12:39;11.80;;;6.40;;
54627;SDS011;40525;55.926;21.066;2024-02-15T05:15:09;11.80;;;5.70;;
54627;SDS011;40525;55.926;21.066;2024-02-15T05:17:39;11.00;;;5.40;;
54627;SDS011;40525;55.926;21.066;2024-02-15T05:20:15;12.20;;;6.00;;
54627;SDS011;40525;55.926;21.066;2024-02-15T05:22:42;10.00;;;6.00;;
54627;SDS011;40525;55.926;21.066;2024-02-15T05:25:17;11.80;;;5.80;;
54627;SDS011;40525;55.926;21.066;2024-02-15T05:27:52;10.60;;;5.50;;
54627;SDS011;40525;55.926;21.066;2024-02-15T05:30:21;10.30;;;6.20;;
54627;SDS011;40525;55.926;21.066;2024-02-15T05:32:50;12.00;;;5.80;;
54627;SDS011;40525;55.926;21.066;2024-02-15T05:35:20;18.30;;;6.70;;
54627;SDS011;40525;55.926;21.066;2024-02-15T05:37:47;11.90;;;6.80;;
54627;SDS011;40525;55.926;21.066;2024-02-15T05:40:14;13.70;;;6.40;;
54627;SDS011;40525;55.926;21.066;2024-02-15T05:42:42;13.10;;;6.40;;
54627;SDS011;40525;55.926;21.066;2024-02-15T05:47:52;14.10;;;6.90;;
54627;SDS011;40525;55.926;21.066;2024-02-15T05:50:19;16.90;;;6.90;;
54627;SDS011;40525;55.926;21.066;2024-02-15T05:52:48;14.20;;;6.50;;
54627;SDS011;40525;55.926;21.066;2024-02-15T05:55:15;16.30;;;7.00;;
54627;SDS011;40525;55.926;21.066;2024-02-15T05:57:45;15.40;;;7.20;;
54627;SDS011;40525;55.926;21.066;2024-02-15T06:00:12;10.60;;;6.00;;
54627;SDS011;40525;55.926;21.066;2024-02-15T06:02:48;14.40;;;6.00;;
54627;SDS011;40525;55.926;21.066;2024-02-15T06:05:17;15.30;;;6.90;;
54627;SDS011;40525;55.926;21.066;2024-02-15T06:07:45;14.70;;;6.80;;
54627;SDS011;40525;55.926;21.066;2024-02-15T06:10:14;16.30;;;6.50;;
54627;SDS011;40525;55.926;21.066;2024-02-15T06:12:42;12.10;;;6.00;;
54627;SDS011;40525;55.926;21.066;2024-02-15T06:15:09;12.20;;;6.50;;
54627;SDS011;40525;55.926;21.066;2024-02-15T06:17:43;11.50;;;5.90;;
54627;SDS011;40525;55.926;21.066;2024-02-15T06:20:14;10.60;;;5.70;;
54627;SDS011;40525;55.926;21.066;2024-02-15T06:22:45;14.50;;;6.20;;
54627;SDS011;40525;55.926;21.066;2024-02-15T06:25:13;13.20;;;5.90;;
54627;SDS011;40525;55.926;21.066;2024-02-15T06:27:42;11.50;;;6.30;;
54627;SDS011;40525;55.926;21.066;2024-02-15T06:30:10;13.40;;;5.50;;
54627;SDS011;40525;55.926;21.066;2024-02-15T06:32:57;12.60;;;6.50;;
54627;SDS011;40525;55.926;21.066;2024-02-15T06:35:43;13.60;;;7.20;;
54627;SDS011;40525;55.926;21.066;2024-02-15T06:38:30;15.30;;;7.40;;
54627;SDS011;40525;55.926;21.066;2024-02-15T06:41:15;18.40;;;7.50;;
54627;SDS011;40525;55.926;21.066;2024-02-15T06:43:42;23.40;;;9.80;;
54627;SDS011;40525;55.926;21.066;2024-02-15T06:46:09;19.00;;;8.80;;
54627;SDS011;40525;55.926;21.066;2024-02-15T06:48:37;18.70;;;9.20;;
54627;SDS011;40525;55.926;21.066;2024-02-15T06:51:04;14.10;;;8.00;;
54627;SDS011;40525;55.926;21.066;2024-02-15T06:53:32;14.80;;;8.10;;
54627;SDS011;40525;55.926;21.066;2024-02-15T06:55:59;13.00;;;7.40;;
54627;SDS011;40525;55.926;21.066;2024-02-15T06:58:26;13.40;;;6.90;;
54627;SDS011;40525;55.926;21.066;2024-02-15T07:00:53;12.00;;;6.90;;
54627;SDS011;40525;55.926;21.066;2024-02-15T07:03:21;12.10;;;5.10;;
54627;SDS011;40525;55.926;21.066;2024-02-15T07:05:50;10.80;;;6.20;;
54627;SDS011;40525;55.926;21.066;2024-02-15T07:08:17;12.60;;;5.80;;
54627;SDS011;40525;55.926;21.066;2024-02-15T07:10:44;11.80;;;6.10;;
54627;SDS011;40525;55.926;21.066;2024-02-15T07:13:11;15.10;;;7.00;;
54627;SDS011;40525;55.926;21.066;2024-02-15T07:15:38;13.90;;;6.70;;
54627;SDS011;40525;55.926;21.066;2024-02-15T07:18:05;16.20;;;6.20;;
54627;SDS011;40525;55.926;21.066;2024-02-15T07:20:33;14.00;;;7.30;;
54627;SDS011;40525;55.926;21.066;2024-02-15T07:23:01;18.10;;;7.50;;
54627;SDS011;40525;55.926;21.066;2024-02-15T07:25:28;16.50;;;8.10;;
54627;SDS011;40525;55.926;21.066;2024-02-15T07:27:55;16.20;;;7.20;;
54627;SDS011;40525;55.926;21.066;2024-02-15T07:30:23;15.60;;;7.30;;
54627;SDS011;40525;55.926;21.066;2024-02-15T07:32:52;15.20;;;7.10;;
54627;SDS011;40525;55.926;21.066;2024-02-15T07:35:19;16.30;;;7.10;;
54627;SDS011;40525;55.926;21.066;2024-02-15T07:37:53;12.00;;;6.20;;
54627;SDS011;40525;55.926;21.066;2024-02-15T07:40:22;11.50;;;6.30;;
54627;SDS011;40525;55.926;21.066;2024-02-15T07:42:49;16.70;;;7.50;;
54627;SDS011;40525;55.926;21.066;2024-02-15T07:45:16;15.80;;;6.70;;
54627;SDS011;40525;55.926;21.066;2024-02-15T07:47:44;10.30;;;5.40;;
54627;SDS011;40525;55.926;21.066;2024-02-15T07:50:14;14.60;;;7.00;;
54627;SDS011;40525;55.926;21.066;2024-02-15T07:52:47;12.60;;;6.30;;
54627;SDS011;40525;55.926;21.066;2024-02-15T07:55:14;13.80;;;7.00;;
54627;SDS011;40525;55.926;21.066;2024-02-15T07:57:41;13.70;;;6.10;;
54627;SDS011;40525;55.926;21.066;2024-02-15T08:00:08;7.70;;;4.80;;
54627;SDS011;40525;55.926;21.066;2024-02-15T08:02:38;12.00;;;6.50;;
54627;SDS011;40525;55.926;21.066;2024-02-15T08:05:12;12.50;;;6.40;;
54627;SDS011;40525;55.926;21.066;2024-02-15T08:07:42;13.20;;;6.50;;
54627;SDS011;40525;55.926;21.066;2024-02-15T08:10:14;14.90;;;7.70;;
54627;SDS011;40525;55.926;21.066;2024-02-15T08:12:41;15.80;;;7.30;;
54627;SDS011;40525;55.926;21.066;2024-02-15T08:15:12;18.20;;;8.10;;
54627;SDS011;40525;55.926;21.066;2024-02-15T08:17:43;15.70;;;7.70;;
54627;SDS011;40525;55.926;21.066;2024-02-15T08:20:15;13.30;;;6.30;;
54627;SDS011;40525;55.926;21.066;2024-02-15T08:22:48;13.70;;;6.60;;
54627;SDS011;40525;55.926;21.066;2024-02-15T08:25:15;19.10;;;7.80;;
54627;SDS011;40525;55.926;21.066;2024-02-15T08:27:46;16.30;;;7.10;;
54627;SDS011;40525;55.926;21.066;2024-02-15T08:30:17;12.10;;;6.90;;
54627;SDS011;40525;55.926;21.066;2024-02-15T08:32:50;17.20;;;7.80;;
54627;SDS011;40525;55.926;21.066;2024-02-15T08:35:20;14.00;;;7.00;;
54627;SDS011;40525;55.926;21.066;2024-02-15T08:37:47;13.30;;;6.60;;
54627;SDS011;40525;55.926;21.066;2024-02-15T08:40:17;17.40;;;6.70;;
54627;SDS011;40525;55.926;21.066;2024-02-15T08:42:46;14.70;;;6.90;;
54627;SDS011;40525;55.926;21.066;2024-02-15T08:45:14;13.00;;;6.70;;
54627;SDS011;40525;55.926;21.066;2024-02-15T08:47:42;10.60;;;5.80;;
54627;SDS011;40525;55.926;21.066;2024-02-15T08:50:10;15.70;;;7.70;;
54627;SDS011;40525;55.926;21.066;2024-02-15T08:52:38;16.00;;;7.40;;
54627;SDS011;40525;55.926;21.066;2024-02-15T08:55:07;17.10;;;8.20;;
54627;SDS011;40525;55.926;21.066;2024-02-15T08:57:36;12.90;;;6.90;;
54627;SDS011;40525;55.926;21.066;2024-02-15T09:00:05;12.60;;;6.90;;
54627;SDS011;40525;55.926;21.066;2024-02-15T09:02:41;14.70;;;6.60;;
54627;SDS011;40525;55.926;21.066;2024-02-15T09:05:10;10.80;;;5.70;;
54627;SDS011;40525;55.926;21.066;2024-02-15T09:07:41;14.90;;;6.40;;
54627;SDS011;40525;55.926;21.066;2024-02-15T09:10:10;11.20;;;6.20;;
54627;SDS011;40525;55.926;21.066;2024-02-15T09:12:38;15.60;;;7.20;;
54627;SDS011;40525;55.926;21.066;2024-02-15T09:15:07;14.60;;;7.20;;
54627;SDS011;40525;55.926;21.066;2024-02-15T09:17:35;16.80;;;7.10;;
54627;SDS011;40525;55.926;21.066;2024-02-15T09:22:35;14.20;;;7.00;;
54627;SDS011;40525;55.926;21.066;2024-02-15T09:25:04;13.90;;;6.20;;
54627;SDS011;40525;55.926;21.066;2024-02-15T09:27:31;11.30;;;5.60;;
54627;SDS011;40525;55.926;21.066;2024-02-15T09:29:58;11.30;;;6.20;;
54627;SDS011;40525;55.926;21.066;2024-02-15T09:32:25;10.90;;;5.90;;
54627;SDS011;40525;55.926;21.066;2024-02-15T09:34:52;13.30;;;6.30;;
54627;SDS011;40525;55.926;21.066;2024-02-15T09:37:19;11.60;;;6.10;;
54627;SDS011;40525;55.926;21.066;2024-02-15T09:39:46;14.40;;;7.30;;
54627;SDS011;40525;55.926;21.066;2024-02-15T09:42:14;12.20;;;6.00;;
54627;SDS011;40525;55.926;21.066;2024-02-15T09:44:41;11.60;;;6.40;;
54627;SDS011;40525;55.926;21.066;2024-02-15T09:47:13;13.70;;;6.80;;
54627;SDS011;40525;55.926;21.066;2024-02-15T09:49:43;14.10;;;6.80;;
54627;SDS011;40525;55.926;21.066;2024-02-15T09:52:10;12.50;;;6.80;;
54627;SDS011;40525;55.926;21.066;2024-02-15T09:54:42;14.50;;;6.40;;
54627;SDS011;40525;55.926;21.066;2024-02-15T09:57:11;18.50;;;7.60;;
54627;SDS011;40525;55.926;21.066;2024-02-15T09:59:39;16.80;;;8.80;;
54627;SDS011;40525;55.926;21.066;2024-02-15T10:02:08;15.20;;;7.80;;
54627;SDS011;40525;55.926;21.066;2024-02-15T10:04:40;17.60;;;8.10;;
54627;SDS011;40525;55.926;21.066;2024-02-15T10:07:07;17.40;;;8.60;;
54627;SDS011;40525;55.926;21.066;2024-02-15T10:09:36;17.00;;;8.40;;
54627;SDS011;40525;55.926;21.066;2024-02-15T10:12:03;14.70;;;7.30;;
54627;SDS011;40525;55.926;21.066;2024-02-15T10:14:33;13.60;;;7.90;;
54627;SDS011;40525;55.926;21.066;2024-02-15T10:17:07;17.30;;;8.70;;
54627;SDS011;40525;55.926;21.066;2024-02-15T10:19:38;17.70;;;8.50;;
54627;SDS011;40525;55.926;21.066;2024-02-15T10:22:06;15.30;;;8.60;;
54627;SDS011;40525;55.926;21.066;2024-02-15T10:24:35;17.60;;;8.50;;
54627;SDS011;40525;55.926;21.066;2024-02-15T10:27:03;17.30;;;8.70;;
54627;SDS011;40525;55.926;21.066;2024-02-15T10:29:33;15.50;;;8.30;;
54627;SDS011;40525;55.926;21.066;2024-02-15T10:32:01;14.90;;;8.30;;
54627;SDS011;40525;55.926;21.066;2024-02-15T10:34:29;13.90;;;7.00;;
54627;SDS011;40525;55.926;21.066;2024-02-15T10:37:11;13.90;;;7.90;;
54627;SDS011;40525;55.926;21.066;2024-02-15T10:39:40;16.50;;;9.10;;
54627;SDS011;40525;55.926;21.066;2024-02-15T10:42:09;15.20;;;8.10;;
54627;SDS011;40525;55.926;21.066;2024-02-15T10:44:38;16.00;;;8.30;;
54627;SDS011;40525;55.926;21.066;2024-02-15T10:47:05;17.30;;;8.50;;
54627;SDS011;40525;55.926;21.066;2024-02-15T10:49:34;14.80;;;8.30;;
54627;SDS011;40525;55.926;21.066;2024-02-15T10:52:03;16.10;;;8.80;;
54627;SDS011;40525;55.926;21.066;2024-02-15T10:57:03;19.50;;;8.40;;
54627;SDS011;40525;55.926;21.066;2024-02-15T10:59:32;14.80;;;8.20;;
54627;SDS011;40525;55.926;21.066;2024-02-15T11:05:06;15.90;;;8.60;;
54627;SDS011;40525;55.926;21.066;2024-02-15T11:07:39;16.00;;;8.60;;
54627;SDS011;40525;55.926;21.066;2024-02-15T11:10:07;17.40;;;8.90;;
54627;SDS011;40525;55.926;21.066;2024-02-15T11:12:37;14.50;;;8.60;;
54627;SDS011;40525;55.926;21.066;2024-02-15T11:15:07;12.80;;;7.20;;
54627;SDS011;40525;55.926;21.066;2024-02-15T11:20:06;14.50;;;8.10;;
54627;SDS011;40525;55.926;21.066;2024-02-15T11:22:36;19.40;;;10.90;;
54627;SDS011;40525;55.926;21.066;2024-02-15T11:25:04;15.30;;;8.90;;
54627;SDS011;40525;55.926;21.066;2024-02-15T11:27:35;15.00;;;7.60;;
54627;SDS011;40525;55.926;21.066;2024-02-15T11:30:08;20.70;;;12.40;;
54627;SDS011;40525;55.926;21.066;2024-02-15T11:32:50;17.50;;;10.30;;
54627;SDS011;40525;55.926;21.066;2024-02-15T11:35:21;18.20;;;8.60;;
54627;SDS011;40525;55.926;21.066;2024-02-15T11:40:27;17.30;;;8.90;;
54627;SDS011;40525;55.926;21.066;2024-02-15T11:42:57;24.70;;;11.30;;
54627;SDS011;40525;55.926;21.066;2024-02-15T11:45:27;16.30;;;8.60;;
54627;SDS011;40525;55.926;21.066;2024-02-15T11:48:00;13.90;;;8.10;;
54627;SDS011;40525;55.926;21.066;2024-02-15T11:50:30;13.00;;;7.70;;
54627;SDS011;40525;55.926;21.066;2024-02-15T11:53:06;16.90;;;8.80;;
54627;SDS011;40525;55.926;21.066;2024-02-15T11:55:39;20.10;;;9.80;;
54627;SDS011;40525;55.926;21.066;2024-02-15T11:58:08;13.90;;;7.60;;
54627;SDS011;40525;55.926;21.066;2024-02-15T12:00:37;15.90;;;7.90;;
54627;SDS011;40525;55.926;21.066;2024-02-15T12:06:30;19.90;;;8.10;;
54627;SDS011;40525;55.926;21.066;2024-02-15T12:09:17;16.10;;;8.10;;
54627;SDS011;40525;55.926;21.066;2024-02-15T12:12:04;21.10;;;10.50;;
54627;SDS011;40525;55.926;21.066;2024-02-15T12:14:57;13.10;;;7.80;;
54627;SDS011;40525;55.926;21.066;2024-02-15T12:17:46;23.10;;;11.80;;
54627;SDS011;40525;55.926;21.066;2024-02-15T12:20:33;19.70;;;8.60;;
54627;SDS011;40525;55.926;21.066;2024-02-15T12:23:01;13.20;;;7.60;;
54627;SDS011;40525;55.926;21.066;2024-02-15T12:25:28;14.50;;;8.40;;
54627;SDS011;40525;55.926;21.066;2024-02-15T12:28:00;17.50;;;8.70;;
54627;SDS011;40525;55.926;21.066;2024-02-15T12:30:34;16.90;;;8.90;;
54627;SDS011;40525;55.926;21.066;2024-02-15T12:33:10;16.10;;;8.80;;
54627;SDS011;40525;55.926;21.066;2024-02-15T12:35:42;16.90;;;9.10;;
54627;SDS011;40525;55.926;21.066;2024-02-15T12:38:12;13.20;;;7.70;;
54627;SDS011;40525;55.926;21.066;2024-02-15T12:40:44;11.80;;;6.20;;
54627;SDS011;40525;55.926;21.066;2024-02-15T12:43:13;15.90;;;7.60;;
54627;SDS011;40525;55.926;21.066;2024-02-15T12:45:42;14.30;;;7.50;;
54627;SDS011;40525;55.926;21.066;2024-02-15T12:48:09;16.60;;;8.80;;
54627;SDS011;40525;55.926;21.066;2024-02-15T12:50:42;15.00;;;7.10;;
54627;SDS011;40525;55.926;21.066;2024-02-15T12:53:09;14.90;;;8.60;;
54627;SDS011;40525;55.926;21.066;2024-02-15T12:55:39;13.30;;;7.70;;
54627;SDS011;40525;55.926;21.066;2024-02-15T12:58:12;15.00;;;8.30;;
54627;SDS011;40525;55.926;21.066;2024-02-15T13:00:42;12.50;;;6.90;;
54627;SDS011;40525;55.926;21.066;2024-02-15T13:03:11;16.70;;;8.10;;
54627;SDS011;40525;55.926;21.066;2024-02-15T13:05:41;15.90;;;8.20;;
54627;SDS011;40525;55.926;21.066;2024-02-15T13:08:08;16.70;;;8.40;;
54627;SDS011;40525;55.926;21.066;2024-02-15T13:10:41;16.20;;;8.70;;
54627;SDS011;40525;55.926;21.066;2024-02-15T13:13:09;14.60;;;8.20;;
54627;SDS011;40525;55.926;21.066;2024-02-15T13:15:37;14.30;;;7.90;;
54627;SDS011;40525;55.926;21.066;2024-02-15T13:18:06;13.30;;;8.00;;
54627;SDS011;40525;55.926;21.066;2024-02-15T13:20:37;13.40;;;7.50;;
54627;SDS011;40525;55.926;21.066;2024-02-15T13:23:05;13.00;;;6.80;;
54627;SDS011;40525;55.926;21.066;2024-02-15T13:25:42;10.70;;;6.20;;
54627;SDS011;40525;55.926;21.066;2024-02-15T13:28:12;9.70;;;6.40;;
54627;SDS011;40525;55.926;21.066;2024-02-15T13:30:41;16.50;;;8.20;;
54627;SDS011;40525;55.926;21.066;2024-02-15T13:33:13;13.20;;;7.60;;
54627;SDS011;40525;55.926;21.066;2024-02-15T13:35:41;10.00;;;7.00;;
54627;SDS011;40525;55.926;21.066;2024-02-15T13:38:09;12.50;;;7.50;;
54627;SDS011;40525;55.926;21.066;2024-02-15T13:40:42;11.90;;;7.10;;
54627;SDS011;40525;55.926;21.066;2024-02-15T13:43:11;12.00;;;7.50;;
54627;SDS011;40525;55.926;21.066;2024-02-15T13:45:39;9.70;;;6.80;;
54627;SDS011;40525;55.926;21.066;2024-02-15T13:48:08;10.80;;;6.80;;
54627;SDS011;40525;55.926;21.066;2024-02-15T13:50:36;13.20;;;8.00;;
54627;SDS011;40525;55.926;21.066;2024-02-15T13:53:06;12.30;;;7.80;;
54627;SDS011;40525;55.926;21.066;2024-02-15T13:55:36;12.20;;;7.30;;
54627;SDS011;40525;55.926;21.066;2024-02-15T13:58:04;14.40;;;6.90;;
54627;SDS011;40525;55.926;21.066;2024-02-15T14:00:31;11.00;;;6.90;;
54627;SDS011;40525;55.926;21.066;2024-02-15T14:03:04;14.90;;;7.50;;
54627;SDS011;40525;55.926;21.066;2024-02-15T14:05:33;13.30;;;7.70;;
54627;SDS011;40525;55.926;21.066;2024-02-15T14:08:01;11.90;;;7.20;;
54627;SDS011;40525;55.926;21.066;2024-02-15T14:10:30;14.30;;;7.70;;
54627;SDS011;40525;55.926;21.066;2024-02-15T14:13:04;13.80;;;7.20;;
54627;SDS011;40525;55.926;21.066;2024-02-15T14:15:36;12.50;;;7.60;;
54627;SDS011;40525;55.926;21.066;2024-02-15T14:18:11;12.50;;;7.20;;
54627;SDS011;40525;55.926;21.066;2024-02-15T14:20:46;8.00;;;5.20;;
54627;SDS011;40525;55.926;21.066;2024-02-15T14:23:14;10.50;;;6.70;;
54627;SDS011;40525;55.926;21.066;2024-02-15T14:25:42;14.10;;;8.00;;
54627;SDS011;40525;55.926;21.066;2024-02-15T14:28:12;13.30;;;7.70;;
54627;SDS011;40525;55.926;21.066;2024-02-15T14:30:41;10.00;;;5.60;;
54627;SDS011;40525;55.926;21.066;2024-02-15T14:33:27;14.30;;;8.30;;
54627;SDS011;40525;55.926;21.066;2024-02-15T14:35:57;14.60;;;8.10;;
54627;SDS011;40525;55.926;21.066;2024-02-15T14:38:27;14.40;;;8.30;;
54627;SDS011;40525;55.926;21.066;2024-02-15T14:40:54;13.70;;;7.40;;
54627;SDS011;40525;55.926;21.066;2024-02-15T14:43:24;12.50;;;7.90;;
54627;SDS011;40525;55.926;21.066;2024-02-15T14:45:54;15.40;;;8.80;;
54627;SDS011;40525;55.926;21.066;2024-02-15T14:48:24;15.70;;;8.40;;
54627;SDS011;40525;55.926;21.066;2024-02-15T14:50:52;11.90;;;7.10;;
54627;SDS011;40525;55.926;21.066;2024-02-15T14:53:20;12.80;;;7.60;;
54627;SDS011;40525;55.926;21.066;2024-02-15T14:55:48;14.50;;;7.50;;